Medford, WI

5:12 PM CDT on July 31, 2014 (GMT -0500)
Tomahawk (KTKV) Elev 1486 ft | 45.47 °N, 89.81 °W | Change Station
Active Advisory: Special Statement Active Notice: Local Storm Report

Current weather conditions updated 17 minutes ago

Clear
Clear
75 °F
Feels Like 75 °F
N
9
Wind Variable Wind from WNW

Tomorrow is forecast to be nearly the same temperature as today. A few thunderstorms possible.

Today
High -- | Low -- °F
--% Chance of Precip.
Yesterday
High -- | Low -- °F
Precip. -- in
5:45 AM 8:29 PM
Waxing Crescent, 21% visible
Pressure 29.99 in
Visibility 10.0 miles
Clouds Clear
Dew Point 53 °F
Humidity 46%
Rainfall 0.00 in
Snow Depth Not available.
UV 4 out of 12
Pollen 7.10 out of 12
Air Quality Not available.
Flu Activity Not available.
METAR KTKV 312155Z AUTO 30008KT 10SM CLR 24/12 A2999 RMK AO2 T02400117

More Conditions Fewer Conditions

Pressure 29.99 in
Visibility 10.0 miles
Clouds Clear
Dew Point 53 °F
Humidity 46%
Rainfall 0.00 in
Snow Depth Not available.
UV 4 out of 12
Pollen 7.10 out of 12
Air Quality Not available.
Flu Activity Not available.
METAR KTKV 312155Z AUTO 30008KT 10SM CLR 24/12 A2999 RMK AO2 T02400117

More Conditions Fewer Conditions

10-Day Weather Forecast

Almanac

Astronomy

Jul. 31, 2014 Rise Set
Actual Time 5:45 AM CDT 8:29 PM CDT
Civil Twilight 5:11 AM CDT 9:03 PM CDT
Nautical Twilight 4:28 AM CDT 9:46 PM CDT
Astronomical Twilight 3:37 AM CDT 10:36 PM CDT
Moon 10:27 AM CDT 10:26 PM CDT
Length of Visible Light 15h 52m
Length of Day
14h 44m
Tomorrow will be 2m 25s shorter.
Waxing Crescent, 21% of the Moon is Illuminated
Today
Waxing Crescent
Aug 3
First Quarter
Aug 10
Full
Aug 17
Last Quarter
Aug 25
New

Today's Extremes

State Highs State Lows

Community

WunderPhotos

Upload Photos

1,739,458 photos uploaded!

Nearby

Snow Depth

Station Depth Elevation
No new snow has been reported.

Earthquake Activity

City Distance Mag. Time & Date
No recent earthquake activity has been reported nearby.
Minimum magnitude displayed is 2.5.

Coastal Water Temperatures

Place Temperature
No Stations Reporting

Nearby Weather Stations

Station Location Temp. Heat Index Dew Point Humidity Wind Precip. Elev Updated Type
WIDOT Abbotsford - STH 29 3 mi E of Abbo, Abbotsford, WI 72 °F - 69 °F 90% North  at  0 mph 0.00 in / hr 1400 ft 3:53 PM CDT MADIS
Rib Falls Repair, Athens, WI 72.5 °F 73 °F 65 °F 78% West  at  0.0 mph 0.00 in / hr 1348 ft 5:12 PM CDT Normal

Show More Stations Show Fewer Stations